createdAt,value
2023-11-04T00:01:50.154Z,8.80
2023-11-04T00:04:20.699Z,8.78
2023-11-04T00:06:51.520Z,8.75
2023-11-04T00:09:37.814Z,8.72
2023-11-04T00:12:18.839Z,8.69
2023-11-04T00:14:54.712Z,8.66
2023-11-04T00:17:25.944Z,8.60
2023-11-04T00:19:57.875Z,8.63
2023-11-04T00:22:28.348Z,8.61
2023-11-04T00:25:02.187Z,8.68
2023-11-04T00:27:33.700Z,8.74
2023-11-04T00:30:07.458Z,8.75
2023-11-04T00:32:43.208Z,8.77
2023-11-04T00:35:13.580Z,8.84
2023-11-04T00:37:44.994Z,8.90
2023-11-04T00:40:17.270Z,8.93
2023-11-04T00:42:48.393Z,8.98
2023-11-04T00:45:21.735Z,9.00
2023-11-04T00:48:05.576Z,9.01
2023-11-04T00:50:38.318Z,9.06
2023-11-04T00:53:13.664Z,9.05
2023-11-04T00:55:44.871Z,9.00
2023-11-04T00:58:15.759Z,9.02
2023-11-04T01:00:49.344Z,9.03
2023-11-04T01:03:20.560Z,9.08
2023-11-04T01:05:51.663Z,9.14
2023-11-04T01:08:23.392Z,9.16
2023-11-04T01:10:55.179Z,9.18
2023-11-04T01:13:26.316Z,9.21
2023-11-04T01:15:59.670Z,9.24
2023-11-04T01:18:30.169Z,9.28
2023-11-04T01:21:00.473Z,9.30
2023-11-04T01:23:34.044Z,9.34
2023-11-04T01:26:04.850Z,9.39
2023-11-04T01:28:39.580Z,9.45
2023-11-04T01:31:15.752Z,9.40
2023-11-04T01:33:47.548Z,9.31
2023-11-04T01:36:18.551Z,9.28
2023-11-04T01:38:49.619Z,9.28
2023-11-04T01:41:20.689Z,9.31
2023-11-04T01:43:59.742Z,9.34
2023-11-04T01:46:35.416Z,9.33
2023-11-04T01:49:09.401Z,9.31
2023-11-04T01:51:49.386Z,9.26
2023-11-04T01:54:36.523Z,9.25
2023-11-04T01:57:09.037Z,9.28
2023-11-04T01:59:46.227Z,9.22
2023-11-04T02:02:22.378Z,9.20
2023-11-04T02:04:54.252Z,9.21
2023-11-04T02:07:27.036Z,9.22
2023-11-04T02:09:58.959Z,9.22
2023-11-04T02:12:29.568Z,9.20
2023-11-04T02:15:03.024Z,9.25
2023-11-04T02:17:36.066Z,9.28
2023-11-04T02:20:09.362Z,9.27
2023-11-04T02:22:42.334Z,9.31
2023-11-04T02:25:16.257Z,9.34
2023-11-04T02:27:50.419Z,9.33
2023-11-04T02:30:21.231Z,9.36
2023-11-04T02:32:52.804Z,9.39
2023-11-04T02:35:30.750Z,9.42
2023-11-04T02:38:04.250Z,9.44
2023-11-04T02:40:34.812Z,9.42
2023-11-04T02:43:06.634Z,9.44
2023-11-04T02:45:39.588Z,9.45
2023-11-04T02:48:13.287Z,9.49
2023-11-04T02:50:54.804Z,9.57
2023-11-04T02:53:28.383Z,9.60
2023-11-04T02:55:58.651Z,9.69
2023-11-04T02:58:29.047Z,9.67
2023-11-04T03:01:02.556Z,9.66
2023-11-04T03:03:36.258Z,9.69
2023-11-04T03:06:14.852Z,9.72
2023-11-04T03:08:51.551Z,9.75
2023-11-04T03:11:25.679Z,9.79
2023-11-04T03:13:56.122Z,9.82
2023-11-04T03:16:28.507Z,9.83
2023-11-04T03:18:59.765Z,9.86
2023-11-04T03:21:30.580Z,9.88
2023-11-04T03:24:03.455Z,9.86
2023-11-04T03:26:35.937Z,9.87
2023-11-04T03:29:09.466Z,9.80
2023-11-04T03:31:44.024Z,9.67
2023-11-04T03:34:14.831Z,9.61
2023-11-04T03:36:45.398Z,9.58
2023-11-04T03:39:20.523Z,9.45
2023-11-04T03:41:53.306Z,9.39
2023-11-04T03:44:24.062Z,9.33
2023-11-04T03:47:03.815Z,9.27
2023-11-04T03:49:36.907Z,9.23
2023-11-04T03:52:08.917Z,9.20
2023-11-04T03:54:42.384Z,9.20
2023-11-04T03:57:13.946Z,9.21
2023-11-04T03:59:44.702Z,9.19
2023-11-04T04:02:18.194Z,9.21
2023-11-04T04:04:48.959Z,9.21
2023-11-04T04:07:19.309Z,9.16
2023-11-04T04:09:53.027Z,9.20
2023-11-04T04:12:24.757Z,9.21
2023-11-04T04:14:55.492Z,9.21
2023-11-04T04:17:26.469Z,9.21
2023-11-04T04:20:01.317Z,9.24
2023-11-04T04:22:36.877Z,9.24
2023-11-04T04:25:11.436Z,9.26
2023-11-04T04:27:45.694Z,9.25
2023-11-04T04:30:17.367Z,9.21
2023-11-04T04:32:50.596Z,9.17
2023-11-04T04:35:20.972Z,9.15
2023-11-04T04:37:54.463Z,9.15
2023-11-04T04:40:29.899Z,9.20
2023-11-04T04:43:00.731Z,9.13
2023-11-04T04:45:37.076Z,9.13
2023-11-04T04:48:08.398Z,9.14
2023-11-04T04:50:39.694Z,9.20
2023-11-04T04:53:11.970Z,9.24
2023-11-04T04:55:45.513Z,9.20
2023-11-04T04:58:15.850Z,9.26
2023-11-04T05:00:49.114Z,9.24
2023-11-04T05:03:20.290Z,9.23
2023-11-04T05:05:52.792Z,9.27
2023-11-04T05:08:24.640Z,9.32
2023-11-04T05:11:00.332Z,9.33
2023-11-04T05:13:31.428Z,9.30
2023-11-04T05:16:04.214Z,9.32
2023-11-04T05:18:35.402Z,9.34
2023-11-04T05:21:09.703Z,9.41
2023-11-04T05:23:40.308Z,9.43
2023-11-04T05:26:14.428Z,9.44
2023-11-04T05:28:49.725Z,9.44
2023-11-04T05:31:26.500Z,9.45
2023-11-04T05:33:59.527Z,9.44
2023-11-04T05:36:30.431Z,9.46
2023-11-04T05:39:01.887Z,9.48
2023-11-04T05:41:35.571Z,9.51
2023-11-04T05:44:11.747Z,9.52
2023-11-04T05:46:42.527Z,9.50
2023-11-04T05:49:13.356Z,9.48
2023-11-04T05:51:44.738Z,9.43
2023-11-04T05:54:22.285Z,9.47
2023-11-04T05:56:58.618Z,9.50
2023-11-04T05:59:29.113Z,9.55
2023-11-04T06:02:05.019Z,9.60
2023-11-04T06:04:36.939Z,9.62
2023-11-04T06:07:08.372Z,9.69
2023-11-04T06:09:41.626Z,9.77
2023-11-04T06:12:16.111Z,9.76
2023-11-04T06:14:51.453Z,9.86
2023-11-04T06:17:22.236Z,9.97
2023-11-04T06:19:52.542Z,10.05
2023-11-04T06:22:23.604Z,10.12
2023-11-04T06:24:54.838Z,10.13
2023-11-04T06:27:28.373Z,10.22
2023-11-04T06:30:01.236Z,10.34
2023-11-04T06:32:35.342Z,10.47
2023-11-04T06:35:06.828Z,10.60
2023-11-04T06:37:37.306Z,10.64
2023-11-04T06:40:11.225Z,10.84
2023-11-04T06:42:47.991Z,11.06
2023-11-04T06:45:20.078Z,11.22
2023-11-04T06:47:53.436Z,11.38
2023-11-04T06:50:24.088Z,11.68
2023-11-04T06:52:54.932Z,11.95
2023-11-04T06:55:29.707Z,12.17
2023-11-04T06:58:04.130Z,12.19
2023-11-04T07:00:35.006Z,12.15
2023-11-04T07:03:10.544Z,12.08
2023-11-04T07:05:42.269Z,12.03
2023-11-04T07:08:12.548Z,11.98
2023-11-04T07:10:43.807Z,11.99
2023-11-04T07:13:17.645Z,12.04
2023-11-04T07:15:49.935Z,12.08
2023-11-04T07:18:21.080Z,12.26
2023-11-04T07:20:54.100Z,12.60
2023-11-04T07:23:24.889Z,13.17
2023-11-04T07:25:55.833Z,13.77
2023-11-04T07:28:37.823Z,14.22
2023-11-04T07:31:09.504Z,14.46
2023-11-04T07:33:42.903Z,14.46
2023-11-04T07:36:13.925Z,14.25
2023-11-04T07:38:44.866Z,14.28
2023-11-04T07:41:15.447Z,14.62
2023-11-04T07:43:49.700Z,14.86
2023-11-04T07:46:27.704Z,14.95
2023-11-04T07:48:58.001Z,14.93
2023-11-04T07:51:28.329Z,14.78
2023-11-04T07:53:59.673Z,14.60
2023-11-04T07:56:30.464Z,14.30
2023-11-04T07:59:03.877Z,14.00
2023-11-04T08:01:35.014Z,13.95
2023-11-04T08:04:05.592Z,14.00
2023-11-04T08:06:37.483Z,14.38
2023-11-04T08:09:12.225Z,14.46
2023-11-04T08:11:43.007Z,14.49
2023-11-04T08:14:16.036Z,14.34
2023-11-04T08:16:49.012Z,14.28
2023-11-04T08:19:19.799Z,14.34
2023-11-04T08:21:56.478Z,14.43
2023-11-04T08:24:27.413Z,14.35
2023-11-04T08:26:59.570Z,14.32
2023-11-04T08:29:34.356Z,14.16
2023-11-04T08:32:06.069Z,14.25
2023-11-04T08:34:38.362Z,14.40
2023-11-04T08:37:11.629Z,14.51
2023-11-04T08:39:49.857Z,14.72
2023-11-04T08:42:20.651Z,14.76
2023-11-04T08:44:53.325Z,15.03
2023-11-04T08:47:24.727Z,15.12
2023-11-04T08:49:58.475Z,15.38
2023-11-04T08:52:28.745Z,15.46
2023-11-04T08:55:05.541Z,15.42
2023-11-04T08:57:40.097Z,15.37
2023-11-04T09:00:17.236Z,15.42
2023-11-04T09:02:50.542Z,15.23
2023-11-04T09:05:28.617Z,15.22
2023-11-04T09:08:04.361Z,15.12
2023-11-04T09:10:34.344Z,15.14
2023-11-04T09:13:10.186Z,15.16
2023-11-04T09:15:44.088Z,14.89
2023-11-04T09:18:19.236Z,14.96
2023-11-04T09:20:50.229Z,15.17
2023-11-04T09:23:21.029Z,15.09
2023-11-04T09:25:54.166Z,15.12
2023-11-04T09:28:28.251Z,15.07
2023-11-04T09:31:03.902Z,15.12
2023-11-04T09:33:35.830Z,15.04
2023-11-04T09:36:10.317Z,14.93
2023-11-04T09:38:43.781Z,14.79
2023-11-04T09:41:14.329Z,14.58
2023-11-04T09:43:45.258Z,14.71
2023-11-04T09:46:19.067Z,14.69
2023-11-04T09:48:53.147Z,14.91
2023-11-04T09:51:25.920Z,15.17
2023-11-04T09:54:05.378Z,15.19
2023-11-04T09:56:36.220Z,15.42
2023-11-04T09:59:09.598Z,15.36
2023-11-04T10:01:44.453Z,15.45
2023-11-04T10:04:15.578Z,15.64
2023-11-04T10:06:47.439Z,15.64
2023-11-04T10:09:21.247Z,15.59
2023-11-04T10:11:52.322Z,15.52
2023-11-04T10:14:23.913Z,15.34
2023-11-04T10:16:57.500Z,15.11
2023-11-04T10:19:29.027Z,14.94
2023-11-04T10:22:03.152Z,14.78
2023-11-04T10:24:33.759Z,14.71
2023-11-04T10:27:05.076Z,14.42
2023-11-04T10:29:37.600Z,14.27
2023-11-04T10:32:16.018Z,14.11
2023-11-04T10:34:52.023Z,14.09
2023-11-04T10:37:23.279Z,14.10
2023-11-04T10:39:59.020Z,14.08
2023-11-04T10:42:33.294Z,14.04
2023-11-04T10:45:12.001Z,14.03
2023-11-04T10:47:57.908Z,14.04
2023-11-04T10:50:35.537Z,14.11
2023-11-04T10:53:13.170Z,14.20
2023-11-04T10:56:02.182Z,14.37
2023-11-04T10:58:43.208Z,14.53
2023-11-04T11:01:15.672Z,14.62
2023-11-04T11:03:51.155Z,14.69
2023-11-04T11:06:22.116Z,14.67
2023-11-04T11:08:53.381Z,14.74
2023-11-04T11:11:34.437Z,14.80
2023-11-04T11:14:06.467Z,14.89
2023-11-04T11:16:37.626Z,15.01
2023-11-04T11:19:18.403Z,15.11
2023-11-04T11:21:54.853Z,15.53
2023-11-04T11:24:26.815Z,15.79
2023-11-04T11:27:09.305Z,15.88
2023-11-04T11:29:58.075Z,15.97
2023-11-04T11:32:38.294Z,16.06
2023-11-04T11:35:14.755Z,16.16
2023-11-04T11:37:51.786Z,16.28
2023-11-04T11:40:47.657Z,16.15
2023-11-04T11:43:25.354Z,16.05
2023-11-04T11:45:57.400Z,16.03
2023-11-04T11:48:31.011Z,16.06
2023-11-04T11:51:12.931Z,16.04
2023-11-04T11:53:48.173Z,15.84
2023-11-04T11:56:19.600Z,15.70
2023-11-04T11:58:52.526Z,15.75
2023-11-04T12:01:25.701Z,15.86
2023-11-04T12:03:57.095Z,15.95
2023-11-04T12:06:30.836Z,15.99
2023-11-04T12:09:04.884Z,15.96
2023-11-04T12:11:41.494Z,15.97
2023-11-04T12:14:22.788Z,15.90
2023-11-04T12:16:54.502Z,15.83
2023-11-04T12:19:29.101Z,16.01
2023-11-04T12:22:03.891Z,16.32
2023-11-04T12:24:39.298Z,16.51
2023-11-04T12:27:15.464Z,16.63
2023-11-04T12:29:47.193Z,16.72
2023-11-04T12:32:23.996Z,16.62
2023-11-04T12:34:57.367Z,16.52
2023-11-04T12:37:34.413Z,16.38
2023-11-04T12:40:05.547Z,16.31
2023-11-04T12:42:46.603Z,16.43
2023-11-04T12:45:22.744Z,16.54
2023-11-04T12:47:53.036Z,16.54
2023-11-04T12:50:23.066Z,16.54
2023-11-04T12:53:05.027Z,16.37
2023-11-04T12:55:37.456Z,16.42
2023-11-04T12:58:11.211Z,16.42
2023-11-04T13:00:42.344Z,16.39
2023-11-04T13:03:14.085Z,16.45
2023-11-04T13:05:45.194Z,16.40
2023-11-04T13:08:19.831Z,16.38
2023-11-04T13:10:50.208Z,16.42
2023-11-04T13:13:28.390Z,16.36
2023-11-04T13:16:01.392Z,16.27
2023-11-04T13:18:31.739Z,15.89
2023-11-04T13:21:04.367Z,15.88
2023-11-04T13:23:39.556Z,15.81
2023-11-04T13:26:09.928Z,15.64
2023-11-04T13:28:39.887Z,15.70
2023-11-04T13:31:10.759Z,15.73
2023-11-04T13:33:49.171Z,15.82
2023-11-04T13:36:22.743Z,15.91
2023-11-04T13:39:03.615Z,16.05
2023-11-04T13:41:43.832Z,16.17
2023-11-04T13:44:20.213Z,16.17
2023-11-04T13:46:58.117Z,16.20
2023-11-04T13:49:29.247Z,16.23
2023-11-04T13:52:00.260Z,16.09
2023-11-04T13:54:35.122Z,16.08
2023-11-04T13:57:09.421Z,16.06
2023-11-04T13:59:48.536Z,16.05
2023-11-04T14:02:19.491Z,16.01
2023-11-04T14:04:50.467Z,15.84
2023-11-04T14:07:21.326Z,15.74
2023-11-04T14:09:54.857Z,15.66
2023-11-04T14:12:28.325Z,15.56
2023-11-04T14:14:58.599Z,15.44
2023-11-04T14:17:29.907Z,15.35
2023-11-04T14:20:01.718Z,15.21
2023-11-04T14:22:34.594Z,15.08
2023-11-04T14:25:08.571Z,15.02
2023-11-04T14:27:38.960Z,14.86
2023-11-04T14:30:12.599Z,14.85
2023-11-04T14:32:45.951Z,14.67
2023-11-04T14:35:16.812Z,14.36
2023-11-04T14:37:49.610Z,14.27
2023-11-04T14:40:26.143Z,14.05
2023-11-04T14:43:01.636Z,13.91
2023-11-04T14:45:39.125Z,13.75
2023-11-04T14:48:11.486Z,13.58
2023-11-04T14:50:46.524Z,13.44
2023-11-04T14:53:27.487Z,13.32
2023-11-04T14:56:00.424Z,13.19
2023-11-04T14:58:31.550Z,13.08
2023-11-04T15:01:02.280Z,13.01
2023-11-04T15:03:33.187Z,12.95
2023-11-04T15:06:08.301Z,12.90
2023-11-04T15:08:38.783Z,12.91
2023-11-04T15:11:12.713Z,13.03
2023-11-04T15:13:44.078Z,13.01
2023-11-04T15:16:14.946Z,13.02
2023-11-04T15:18:48.036Z,12.98
2023-11-04T15:21:18.892Z,12.91
2023-11-04T15:23:52.349Z,12.80
2023-11-04T15:26:26.058Z,12.68
2023-11-04T15:28:57.032Z,12.54
2023-11-04T15:31:27.904Z,12.42
2023-11-04T15:33:58.622Z,12.27
2023-11-04T15:36:30.823Z,12.13
2023-11-04T15:39:01.712Z,11.99
2023-11-04T15:41:37.040Z,11.87
2023-11-04T15:44:10.864Z,11.78
2023-11-04T15:46:47.684Z,11.70
2023-11-04T15:49:19.018Z,11.62
2023-11-04T15:51:50.503Z,11.52
2023-11-04T15:54:21.427Z,11.40
2023-11-04T15:56:55.272Z,11.32
2023-11-04T15:59:25.594Z,11.27
2023-11-04T16:02:01.846Z,11.18
2023-11-04T16:04:32.493Z,11.09
2023-11-04T16:07:10.379Z,11.00
2023-11-04T16:09:42.058Z,10.92
2023-11-04T16:12:18.342Z,10.83
2023-11-04T16:14:48.683Z,10.76
2023-11-04T16:17:19.154Z,10.69
2023-11-04T16:19:49.459Z,10.63
2023-11-04T16:22:22.886Z,10.56
2023-11-04T16:24:54.215Z,10.50
2023-11-04T16:27:28.155Z,10.43
2023-11-04T16:29:58.857Z,10.37
2023-11-04T16:32:30.229Z,10.31
2023-11-04T16:35:01.157Z,10.26
2023-11-04T16:37:31.845Z,10.20
2023-11-04T16:40:07.205Z,10.15
2023-11-04T16:42:42.851Z,10.08
2023-11-04T16:45:16.724Z,10.05
2023-11-04T16:47:50.292Z,10.01
2023-11-04T16:50:24.115Z,9.95
2023-11-04T16:52:55.047Z,9.87
2023-11-04T16:55:26.005Z,9.84
2023-11-04T16:58:01.654Z,9.78
2023-11-04T17:00:32.405Z,9.75
2023-11-04T17:03:03.587Z,9.77
2023-11-04T17:05:34.037Z,9.79
2023-11-04T17:08:06.726Z,9.74
2023-11-04T17:10:37.770Z,9.69
2023-11-04T17:13:10.369Z,9.66
2023-11-04T17:15:44.515Z,9.61
2023-11-04T17:18:16.880Z,9.52
2023-11-04T17:20:47.686Z,9.45
2023-11-04T17:23:18.570Z,9.40
2023-11-04T17:25:48.931Z,9.34
2023-11-04T17:28:22.916Z,9.27
2023-11-04T17:30:54.618Z,9.21
2023-11-04T17:33:25.481Z,9.16
2023-11-04T17:35:56.267Z,9.09
2023-11-04T17:38:27.640Z,9.05
2023-11-04T17:40:58.097Z,9.02
2023-11-04T17:43:34.458Z,9.00
2023-11-04T17:46:07.062Z,8.93
2023-11-04T17:48:37.839Z,8.83
2023-11-04T17:51:09.034Z,8.79
2023-11-04T17:53:41.505Z,8.76
2023-11-04T17:56:12.580Z,8.74
2023-11-04T17:58:47.003Z,8.71
2023-11-04T18:01:29.589Z,8.67
2023-11-04T18:04:02.683Z,8.65
2023-11-04T18:06:33.349Z,8.59
2023-11-04T18:09:09.593Z,8.55
2023-11-04T18:11:43.233Z,8.52
2023-11-04T18:14:20.890Z,8.48
2023-11-04T18:16:52.008Z,8.47
2023-11-04T18:19:24.014Z,8.45
2023-11-04T18:21:57.648Z,8.42
2023-11-04T18:24:28.591Z,8.39
2023-11-04T18:26:58.913Z,8.39
2023-11-04T18:29:31.884Z,8.37
2023-11-04T18:32:02.819Z,8.31
2023-11-04T18:34:33.359Z,8.26
2023-11-04T18:37:08.666Z,8.23
2023-11-04T18:39:41.833Z,8.20
2023-11-04T18:42:14.983Z,8.22
2023-11-04T18:44:48.969Z,8.15
2023-11-04T18:47:23.806Z,8.11
2023-11-04T18:49:57.465Z,8.10
2023-11-04T18:52:33.273Z,8.08
2023-11-04T18:55:06.551Z,8.08
2023-11-04T18:57:40.147Z,8.04
2023-11-04T19:00:19.655Z,8.00
2023-11-04T19:02:54.063Z,7.95
2023-11-04T19:05:29.387Z,7.93
2023-11-04T19:08:03.498Z,7.90
2023-11-04T19:10:39.642Z,7.87
2023-11-04T19:13:12.278Z,7.83
2023-11-04T19:15:52.281Z,7.78
2023-11-04T19:18:23.534Z,7.73
2023-11-04T19:20:55.474Z,7.70
2023-11-04T19:23:26.162Z,7.65
2023-11-04T19:26:01.882Z,7.62
2023-11-04T19:28:33.572Z,7.56
2023-11-04T19:31:13.872Z,7.56
2023-11-04T19:33:47.697Z,7.51
2023-11-04T19:36:27.890Z,7.50
2023-11-04T19:38:58.808Z,7.47
2023-11-04T19:41:29.678Z,7.52
2023-11-04T19:44:00.205Z,7.45
2023-11-04T19:46:35.791Z,7.46
2023-11-04T19:49:14.468Z,7.48
2023-11-04T19:51:52.641Z,7.47
2023-11-04T19:54:30.206Z,7.40
2023-11-04T19:57:06.478Z,7.45
2023-11-04T19:59:37.796Z,7.43
2023-11-04T20:02:16.206Z,7.35
2023-11-04T20:04:46.677Z,7.36
2023-11-04T20:07:19.995Z,7.31
2023-11-04T20:09:50.725Z,7.28
2023-11-04T20:12:26.734Z,7.28
2023-11-04T20:15:05.930Z,7.25
2023-11-04T20:17:39.342Z,7.26
2023-11-04T20:20:11.441Z,7.24
2023-11-04T20:22:45.207Z,7.21
2023-11-04T20:25:17.373Z,7.20
2023-11-04T20:27:47.811Z,7.17
2023-11-04T20:30:18.714Z,7.14
2023-11-04T20:32:52.379Z,7.10
2023-11-04T20:35:32.668Z,7.02
2023-11-04T20:38:08.459Z,6.98
2023-11-04T20:40:40.340Z,6.94
2023-11-04T20:43:11.071Z,6.86
2023-11-04T20:45:41.898Z,6.81
2023-11-04T20:48:15.933Z,6.82
2023-11-04T20:50:46.285Z,6.79
2023-11-04T20:53:20.956Z,6.76
2023-11-04T20:55:52.509Z,6.70
2023-11-04T20:58:26.447Z,6.70
2023-11-04T21:00:57.687Z,6.68
2023-11-04T21:03:34.883Z,6.66
2023-11-04T21:06:07.105Z,6.58
2023-11-04T21:08:39.417Z,6.62
2023-11-04T21:11:11.661Z,6.57
2023-11-04T21:13:42.123Z,6.58
2023-11-04T21:16:16.027Z,6.60
2023-11-04T21:18:49.761Z,6.71
2023-11-04T21:21:22.792Z,6.83
2023-11-04T21:23:59.195Z,6.95
2023-11-04T21:26:33.251Z,7.06
2023-11-04T21:29:04.341Z,7.13
2023-11-04T21:31:35.067Z,7.21
2023-11-04T21:34:10.953Z,7.31
2023-11-04T21:36:41.204Z,7.36
2023-11-04T21:39:16.928Z,7.44
2023-11-04T21:41:47.443Z,7.45
2023-11-04T21:44:21.575Z,7.46
2023-11-04T21:46:53.502Z,7.47
2023-11-04T21:49:26.779Z,7.48
2023-11-04T21:51:57.798Z,7.49
2023-11-04T21:54:33.760Z,7.50
2023-11-04T21:57:05.089Z,7.55
2023-11-04T21:59:36.275Z,7.52
2023-11-04T22:02:07.474Z,7.49
2023-11-04T22:04:41.334Z,7.42
2023-11-04T22:07:11.703Z,7.36
2023-11-04T22:09:42.860Z,7.29
2023-11-04T22:12:13.161Z,7.28
2023-11-04T22:14:46.539Z,7.28
2023-11-04T22:17:17.934Z,7.25
2023-11-04T22:19:51.481Z,7.21
2023-11-04T22:22:25.017Z,7.15
2023-11-04T22:24:57.826Z,7.14
2023-11-04T22:27:40.176Z,7.16
2023-11-04T22:30:12.073Z,7.28
2023-11-04T22:32:45.799Z,7.38
2023-11-04T22:35:28.103Z,7.48
2023-11-04T22:37:59.540Z,7.57
2023-11-04T22:40:36.768Z,7.67
2023-11-04T22:43:12.294Z,7.74
2023-11-04T22:46:11.392Z,7.78
2023-11-04T22:48:42.365Z,7.82
2023-11-04T22:51:22.227Z,7.87
2023-11-04T22:53:53.267Z,7.90
2023-11-04T22:56:24.204Z,7.97
2023-11-04T22:58:57.947Z,8.03
2023-11-04T23:01:30.076Z,8.08
2023-11-04T23:04:01.068Z,8.11
2023-11-04T23:06:36.738Z,8.14
2023-11-04T23:09:11.630Z,8.16
2023-11-04T23:11:42.548Z,8.19
2023-11-04T23:14:16.239Z,8.18
2023-11-04T23:16:47.697Z,8.13
2023-11-04T23:19:21.014Z,8.12
2023-11-04T23:21:56.213Z,8.12
2023-11-04T23:24:27.015Z,8.21
2023-11-04T23:26:57.876Z,8.28
2023-11-04T23:29:28.477Z,8.29
2023-11-04T23:32:07.146Z,8.33
2023-11-04T23:34:37.799Z,8.37
2023-11-04T23:37:12.429Z,8.51
2023-11-04T23:39:44.999Z,8.54
2023-11-04T23:42:16.138Z,8.57
2023-11-04T23:44:47.216Z,8.59
2023-11-04T23:47:20.649Z,8.64
2023-11-04T23:49:53.523Z,8.74
2023-11-04T23:52:27.587Z,8.88
2023-11-04T23:55:01.498Z,9.02
2023-11-04T23:57:33.541Z,9.04
